KCRW Airport Diagram

We have created a template for each of the higher traffic airports in the vZID airspace. They include KCMH, KCRW, KCVG, KDAY, KIND, KLEX and KSDF. You wil find usefull information including the airport diagram, weather, and specific airport procedures.

KCRW Weather

[Source: ADDS]
METAR
KCRW 251254Z 00000KT 9SM SCT100 BKN200 18/17 A3010 RMK AO2 SLP184 T01830167 =
TAF
KCRW 251143Z 2512/2612 VRB03KT P6SM SCT250 FM260600 00000KT P6SM FEW045 FM260700 00000KT 2SM BR FEW045 FM260800 00000KT 1/2SM FG VV001 =
JSN Epic template designed by JoomlaShine.com